Airfield :
LOGIN :

Register | Disclaimer

   EN    FR    IT 

 










Legend :    VFR   Marginal VFR   IFR   Intensive IFR   Very Intensive IFR
Visi :
Ceiling :
>= 8 km
>= 3000ft
5 to 8 km
1000 to 3000 ft
1500m to 5 km
500 to 1000 ft
800 to 1500m
200 to 500 ft
< 800m
< 200 ft
Symbols :   Thunderstorms  Fog  Heavy snow  Heavy precipitations  Wind > 20 kt
SIGMETs :     Misc.  Thunderstorms  Icing  Turbulence  Mountain Waves  Volcanic Ashes






- Airport Elevation : 425 ft
- IATA code : DTM


EDLW - Dortmund

CURRENT METAR :
  • 271520Z VRB02KT 9999 FEW048 18/11 Q1015

EXPIRED METARs :
  • 271450Z VRB04KT 9999 SCT048 19/10 Q1015
  • 271420Z 33004KT 280V030 9999 BKN048 19/11 Q1015
  • 271350Z 29003KT 250V010 9999 BKN045 19/11 Q1015
  • 271320Z VRB03KT 9999 BKN038 20/12 Q1016
  • 271250Z VRB02KT CAVOK 20/12 Q1016
  • 271220Z 24004KT 130V280 CAVOK 19/11 Q1016
  • 271150Z 24004KT 150V300 9999 FEW028 19/12 Q1017
  • 271120Z 24007KT 9999 -DZ BKN032 17/13 Q1017
  • 271050Z VRB03KT 9999 FEW036 18/12 Q1017

TAF TAF EDLW
Valid from the 27 at 12:00 until the 28 at 12:00 UTC


271100Z 2712/2812 26005KT 9999 BKN030
TEMPO 2712/2723 SHRA SCT025CB
PROB30
TEMPO 2712/2720 27015G25KT TSRA BKN020CB
PROB40
TEMPO 2720/2807 BKN012
PROB30
TEMPO 2722/2805 BKN006
BECMG 2806/2809 22010KT



MET'MAP, your aeronautical weather chart ! - Copyright ORBIFLY December 2007 - Disclaimer

ORBIFLY MET'MAP TEAM :

Programming & Development : Alexandra Zaïnal
Original concept : Baudouin d'Aumeries
Technical & hardware support : Manuel Goepfert
Assistance : Marc-Olivier Méhu




SOURCES & CREDITS :

   NOAA